createdAt,value
2022-10-01T00:00:04.013Z,21.16
2022-10-01T00:00:13.944Z,21.18
2022-10-01T00:00:23.938Z,21.16
2022-10-01T00:00:33.949Z,21.18
2022-10-01T00:00:43.987Z,21.19
2022-10-01T00:00:53.940Z,21.16
2022-10-01T00:01:03.982Z,21.13
2022-10-01T00:01:13.988Z,21.16
2022-10-01T00:01:24.006Z,21.15
2022-10-01T00:01:34.236Z,21.15
2022-10-01T00:01:44.007Z,21.15
2022-10-01T00:01:53.997Z,21.16
2022-10-01T00:02:04.024Z,21.16
2022-10-01T00:02:13.929Z,21.19
2022-10-01T00:02:23.931Z,21.18
2022-10-01T00:02:33.983Z,21.18
2022-10-01T00:02:43.959Z,21.16
2022-10-01T00:02:53.965Z,21.15
2022-10-01T00:03:03.991Z,21.15
2022-10-01T00:03:13.998Z,21.15
2022-10-01T00:03:23.922Z,21.16
2022-10-01T00:03:33.939Z,21.13
2022-10-01T00:03:43.928Z,21.18
2022-10-01T00:03:53.916Z,21.15
2022-10-01T00:04:03.912Z,21.13
2022-10-01T00:04:13.912Z,21.15
2022-10-01T00:04:23.926Z,21.15
2022-10-01T00:04:33.918Z,21.15
2022-10-01T00:04:43.912Z,21.15
2022-10-01T00:04:53.971Z,21.13
2022-10-01T00:05:03.903Z,21.15
2022-10-01T00:05:13.920Z,21.15
2022-10-01T00:05:23.920Z,21.15
2022-10-01T00:05:33.952Z,21.16
2022-10-01T00:05:43.903Z,21.15
2022-10-01T00:05:53.901Z,21.13
2022-10-01T00:06:03.896Z,21.15
2022-10-01T00:06:13.914Z,21.12
2022-10-01T00:06:23.896Z,21.15
2022-10-01T00:06:33.897Z,21.13
2022-10-01T00:06:43.890Z,21.15
2022-10-01T00:06:53.896Z,21.13
2022-10-01T00:07:03.901Z,21.16
2022-10-01T00:07:13.906Z,21.13
2022-10-01T00:07:23.891Z,21.15
2022-10-01T00:07:33.888Z,21.13
2022-10-01T00:07:43.911Z,21.13
2022-10-01T00:07:53.910Z,21.15
2022-10-01T00:08:03.905Z,21.15
2022-10-01T00:08:13.931Z,21.13
2022-10-01T00:08:23.880Z,21.16
2022-10-01T00:08:33.885Z,21.18
2022-10-01T00:08:43.876Z,21.16
2022-10-01T00:08:53.880Z,21.15
2022-10-01T00:09:03.887Z,21.15
2022-10-01T00:09:13.877Z,21.18
2022-10-01T00:09:23.888Z,21.15
2022-10-01T00:09:33.873Z,21.16
2022-10-01T00:09:43.875Z,21.18
2022-10-01T00:09:53.870Z,21.15
2022-10-01T00:10:03.873Z,21.16
2022-10-01T00:10:13.921Z,21.13
2022-10-01T00:10:23.901Z,21.16
2022-10-01T00:10:33.897Z,21.13
2022-10-01T00:10:43.913Z,21.13
2022-10-01T00:10:53.869Z,21.13
2022-10-01T00:11:03.860Z,21.15
2022-10-01T00:11:13.914Z,21.15
2022-10-01T00:11:23.856Z,21.16
2022-10-01T00:11:34.120Z,21.15
2022-10-01T00:11:43.857Z,21.13
2022-10-01T00:11:53.865Z,21.16
2022-10-01T00:12:03.854Z,21.12
2022-10-01T00:12:13.855Z,21.16
2022-10-01T00:12:23.855Z,21.15
2022-10-01T00:12:33.855Z,21.13
2022-10-01T00:12:43.908Z,21.15
2022-10-01T00:12:53.855Z,21.12
2022-10-01T00:13:03.845Z,21.16
2022-10-01T00:13:13.848Z,21.13
2022-10-01T00:13:23.848Z,21.13
2022-10-01T00:13:33.849Z,21.13
2022-10-01T00:13:43.843Z,21.16
2022-10-01T00:13:53.879Z,21.15
2022-10-01T00:14:03.839Z,21.13
2022-10-01T00:14:13.842Z,21.15
2022-10-01T00:14:23.866Z,21.13
2022-10-01T00:14:33.836Z,21.15
2022-10-01T00:14:43.888Z,21.12
2022-10-01T00:14:53.838Z,21.16
2022-10-01T00:15:06.151Z,21.15
2022-10-01T00:15:13.840Z,21.16
2022-10-01T00:15:23.845Z,21.13
2022-10-01T00:15:53.831Z,21.15
2022-10-01T00:16:03.825Z,21.15
2022-10-01T00:16:13.872Z,21.16
2022-10-01T00:16:23.866Z,21.16
2022-10-01T00:16:33.960Z,21.13
2022-10-01T00:16:43.901Z,21.12
2022-10-01T00:16:53.872Z,21.13
2022-10-01T00:17:03.819Z,21.15
2022-10-01T00:17:13.838Z,21.15
2022-10-01T00:17:23.819Z,21.15
2022-10-01T00:17:33.819Z,21.15
2022-10-01T00:17:43.817Z,21.15
2022-10-01T00:17:53.818Z,21.15
2022-10-01T00:18:03.811Z,21.13
2022-10-01T00:18:23.822Z,21.15
2022-10-01T00:18:33.825Z,21.16
2022-10-01T00:18:43.860Z,21.16
2022-10-01T00:18:53.811Z,21.13
2022-10-01T00:19:03.822Z,21.12
2022-10-01T00:19:13.808Z,21.15
2022-10-01T00:19:23.801Z,21.13
2022-10-01T00:19:33.811Z,21.15
2022-10-01T00:19:43.852Z,21.16
2022-10-01T00:19:53.819Z,21.13
2022-10-01T00:20:10.659Z,21.13
2022-10-01T00:20:18.697Z,21.12
2022-10-01T00:20:23.799Z,21.13
2022-10-01T00:20:43.800Z,21.15
2022-10-01T00:20:53.804Z,21.13
2022-10-01T00:21:03.805Z,21.15
2022-10-01T00:21:13.788Z,21.15
2022-10-01T00:21:23.793Z,21.12
2022-10-01T00:21:34.085Z,21.12
2022-10-01T00:21:43.809Z,21.12
2022-10-01T00:21:53.786Z,21.13
2022-10-01T00:22:03.786Z,21.15
2022-10-01T00:22:13.779Z,21.13
2022-10-01T00:22:23.783Z,21.13
2022-10-01T00:22:33.817Z,21.15
2022-10-01T00:22:43.779Z,21.11
2022-10-01T00:23:02.473Z,21.13
2022-10-01T00:23:07.141Z,21.12
2022-10-01T00:23:17.157Z,21.15
2022-10-01T00:23:27.182Z,21.13
2022-10-01T00:23:37.131Z,21.13
2022-10-01T00:23:47.149Z,21.13
2022-10-01T00:23:57.135Z,21.13
2022-10-01T00:24:07.132Z,21.15
2022-10-01T00:24:17.133Z,21.15
2022-10-01T00:24:27.131Z,21.12
2022-10-01T00:24:37.130Z,21.16
2022-10-01T00:24:47.126Z,21.13
2022-10-01T00:24:57.133Z,21.15
2022-10-01T00:25:07.167Z,21.15
2022-10-01T00:25:17.145Z,21.15
2022-10-01T00:25:27.121Z,21.15
2022-10-01T00:25:37.121Z,21.12
2022-10-01T00:25:47.142Z,21.13
2022-10-01T00:25:57.132Z,21.15
2022-10-01T00:26:07.122Z,21.15
2022-10-01T00:26:17.122Z,21.13
2022-10-01T00:26:27.120Z,21.13
2022-10-01T00:26:37.116Z,21.12
2022-10-01T00:26:47.121Z,21.15
2022-10-01T00:26:57.111Z,21.12
2022-10-01T00:27:07.110Z,21.13
2022-10-01T00:27:17.135Z,21.15
2022-10-01T00:27:27.118Z,21.15
2022-10-01T00:27:37.103Z,21.15
2022-10-01T00:27:47.151Z,21.16
2022-10-01T00:27:57.130Z,21.13
2022-10-01T00:28:07.136Z,21.15
2022-10-01T00:28:17.182Z,21.12
2022-10-01T00:28:27.208Z,21.15
2022-10-01T00:28:37.096Z,21.13
2022-10-01T00:28:47.100Z,21.15
2022-10-01T00:28:57.099Z,21.15
2022-10-01T00:29:07.098Z,21.12
2022-10-01T00:29:17.095Z,21.13
2022-10-01T00:29:27.094Z,21.13
2022-10-01T00:29:37.136Z,21.13
2022-10-01T00:29:47.091Z,21.15
2022-10-01T00:29:57.116Z,21.12
2022-10-01T00:30:07.093Z,21.12
2022-10-01T00:30:17.114Z,21.12
2022-10-01T00:30:27.116Z,21.12
2022-10-01T00:30:47.091Z,21.13
2022-10-01T00:30:57.102Z,21.12
2022-10-01T00:31:07.206Z,21.13
2022-10-01T00:31:17.115Z,21.13
2022-10-01T00:31:27.149Z,21.11
2022-10-01T00:31:37.754Z,21.13
2022-10-01T00:31:47.122Z,21.15
2022-10-01T00:31:57.192Z,21.11
2022-10-01T00:32:07.076Z,21.13
2022-10-01T00:32:17.068Z,21.15
2022-10-01T00:32:27.069Z,21.11
2022-10-01T00:32:37.074Z,21.12
2022-10-01T00:32:47.069Z,21.13
2022-10-01T00:32:57.068Z,21.12
2022-10-01T00:33:17.063Z,21.13
2022-10-01T00:33:27.065Z,21.09
2022-10-01T00:33:37.058Z,21.13
2022-10-01T00:33:47.066Z,21.11
2022-10-01T00:33:57.061Z,21.12
2022-10-01T00:34:07.095Z,21.12
2022-10-01T00:34:17.068Z,21.13
2022-10-01T00:34:27.069Z,21.11
2022-10-01T00:34:37.055Z,21.12
2022-10-01T00:34:47.095Z,21.12
2022-10-01T00:34:57.050Z,21.12
2022-10-01T00:35:07.053Z,21.13
2022-10-01T00:35:17.056Z,21.11
2022-10-01T00:35:27.058Z,21.12
2022-10-01T00:35:37.057Z,21.11
2022-10-01T00:35:47.048Z,21.11
2022-10-01T00:35:57.058Z,21.13
2022-10-01T00:36:07.047Z,21.09
2022-10-01T00:36:17.044Z,21.12
2022-10-01T00:36:27.043Z,21.15
2022-10-01T00:36:37.042Z,21.12
2022-10-01T00:36:47.040Z,21.13
2022-10-01T00:36:57.039Z,21.13
2022-10-01T00:37:07.041Z,21.13
2022-10-01T00:37:17.036Z,21.13
2022-10-01T00:37:27.037Z,21.13
2022-10-01T00:37:37.036Z,21.12
2022-10-01T00:37:47.034Z,21.13
2022-10-01T00:37:57.027Z,21.11
2022-10-01T00:38:17.028Z,21.11
2022-10-01T00:38:27.027Z,21.12
2022-10-01T00:38:37.042Z,21.13
2022-10-01T00:38:47.027Z,21.12
2022-10-01T00:38:57.036Z,21.09
2022-10-01T00:39:07.027Z,21.12
2022-10-01T00:39:17.022Z,21.11
2022-10-01T00:39:27.081Z,21.11
2022-10-01T00:39:37.016Z,21.12
2022-10-01T00:39:47.050Z,21.11
2022-10-01T00:39:57.022Z,21.11
2022-10-01T00:40:07.016Z,21.12
2022-10-01T00:40:17.016Z,21.13
2022-10-01T00:40:27.014Z,21.12
2022-10-01T00:40:37.010Z,21.11
2022-10-01T00:40:47.010Z,21.12
2022-10-01T00:40:57.007Z,21.13
2022-10-01T00:41:07.027Z,21.12
2022-10-01T00:41:17.007Z,21.13
2022-10-01T00:41:27.022Z,21.12
2022-10-01T00:41:37.445Z,21.11
2022-10-01T00:41:47.006Z,21.12
2022-10-01T00:41:57.020Z,21.12
2022-10-01T00:42:07.003Z,21.13
2022-10-01T00:42:17.010Z,21.12
2022-10-01T00:42:27.002Z,21.11
2022-10-01T00:42:36.995Z,21.11
2022-10-01T00:42:46.996Z,21.09
2022-10-01T00:42:57.043Z,21.09
2022-10-01T00:43:07.005Z,21.13
2022-10-01T00:43:16.993Z,21.08
2022-10-01T00:43:27.020Z,21.12
2022-10-01T00:43:36.989Z,21.13
2022-10-01T00:43:46.995Z,21.09
2022-10-01T00:43:56.991Z,21.11
2022-10-01T00:44:07.004Z,21.08
2022-10-01T00:44:16.984Z,21.11
2022-10-01T00:44:27.011Z,21.11
2022-10-01T00:44:36.983Z,21.08
2022-10-01T00:44:47.016Z,21.09
2022-10-01T00:44:56.979Z,21.09
2022-10-01T00:45:06.983Z,21.13
2022-10-01T00:45:16.976Z,21.11
2022-10-01T00:45:27.011Z,21.11
2022-10-01T00:45:37.033Z,21.06
2022-10-01T00:45:47.041Z,21.12
2022-10-01T00:45:57.049Z,21.12
2022-10-01T00:46:07.081Z,21.11
2022-10-01T00:46:17.043Z,21.09
2022-10-01T00:46:26.971Z,21.11
2022-10-01T00:46:36.968Z,21.11
2022-10-01T00:46:46.984Z,21.08
2022-10-01T00:46:56.962Z,21.08
2022-10-01T00:47:06.970Z,21.11
2022-10-01T00:47:16.979Z,21.08
2022-10-01T00:47:26.990Z,21.11
2022-10-01T00:47:36.966Z,21.09
2022-10-01T00:47:46.962Z,21.08
2022-10-01T00:47:56.971Z,21.11
2022-10-01T00:48:06.963Z,21.11
2022-10-01T00:48:16.971Z,21.11
2022-10-01T00:48:26.989Z,21.09
2022-10-01T00:48:36.957Z,21.11
2022-10-01T00:48:46.993Z,21.12
2022-10-01T00:48:56.972Z,21.11
2022-10-01T00:49:06.961Z,21.11
2022-10-01T00:49:16.951Z,21.11
2022-10-01T00:49:26.963Z,21.11
2022-10-01T00:49:36.946Z,21.11
2022-10-01T00:49:46.946Z,21.08
2022-10-01T00:49:59.409Z,21.09
2022-10-01T00:50:06.958Z,21.11
2022-10-01T00:50:16.942Z,21.09
2022-10-01T00:50:26.957Z,21.12
2022-10-01T00:50:36.939Z,21.08
2022-10-01T00:50:46.947Z,21.09
2022-10-01T00:50:56.936Z,21.13
2022-10-01T00:51:06.942Z,21.09
2022-10-01T00:51:26.975Z,21.09
2022-10-01T00:51:37.140Z,21.09
2022-10-01T00:51:46.978Z,21.09
2022-10-01T00:51:56.926Z,21.09
2022-10-01T00:52:06.934Z,21.09
2022-10-01T00:52:16.947Z,21.12
2022-10-01T00:52:26.933Z,21.09
2022-10-01T00:52:36.930Z,21.11
2022-10-01T00:52:46.924Z,21.11
2022-10-01T00:52:56.937Z,21.09
2022-10-01T00:53:06.952Z,21.11
2022-10-01T00:53:16.921Z,21.12
2022-10-01T00:53:26.920Z,21.09
2022-10-01T00:53:36.931Z,21.09
2022-10-01T00:53:46.990Z,21.11
2022-10-01T00:53:56.918Z,21.09
2022-10-01T00:54:06.942Z,21.09
2022-10-01T00:54:16.935Z,21.11
2022-10-01T00:54:26.939Z,21.11
2022-10-01T00:54:36.931Z,21.12
2022-10-01T00:54:46.914Z,21.12
2022-10-01T00:54:56.944Z,21.11
2022-10-01T00:55:06.908Z,21.09
2022-10-01T00:55:16.905Z,21.09
2022-10-01T00:55:26.909Z,21.08
2022-10-01T00:55:36.909Z,21.11
2022-10-01T00:55:46.904Z,21.08
2022-10-01T00:55:56.904Z,21.12
2022-10-01T00:56:06.913Z,21.09
2022-10-01T00:56:16.914Z,21.11
2022-10-01T00:56:26.900Z,21.08
2022-10-01T00:56:36.900Z,21.09
2022-10-01T00:56:46.939Z,21.09
2022-10-01T00:56:56.898Z,21.11
2022-10-01T00:57:06.894Z,21.09
2022-10-01T00:57:16.898Z,21.08
2022-10-01T00:57:26.893Z,21.08
2022-10-01T00:57:36.910Z,21.09
2022-10-01T00:57:46.891Z,21.09
2022-10-01T00:57:56.885Z,21.09
2022-10-01T00:58:06.887Z,21.09
2022-10-01T00:58:16.890Z,21.11
2022-10-01T00:58:26.884Z,21.09
2022-10-01T00:58:36.880Z,21.08
2022-10-01T00:58:56.908Z,21.09
2022-10-01T00:59:06.893Z,21.08
2022-10-01T00:59:16.879Z,21.08
2022-10-01T00:59:26.880Z,21.06
2022-10-01T00:59:36.874Z,21.06
2022-10-01T00:59:46.878Z,21.09
2022-10-01T00:59:56.876Z,21.08
2022-10-01T01:00:06.872Z,21.08
2022-10-01T01:00:16.866Z,21.08
2022-10-01T01:00:26.877Z,21.09
2022-10-01T01:00:36.867Z,21.08
2022-10-01T01:00:46.875Z,21.09
2022-10-01T01:00:56.912Z,21.09
2022-10-01T01:01:06.923Z,21.06
2022-10-01T01:01:16.909Z,21.08
2022-10-01T01:01:26.927Z,21.08
2022-10-01T01:01:37.317Z,21.09
2022-10-01T01:01:46.935Z,21.08
2022-10-01T01:01:57.048Z,21.09
2022-10-01T01:02:06.900Z,21.11
2022-10-01T01:02:16.884Z,21.09
2022-10-01T01:02:26.891Z,21.06
2022-10-01T01:02:36.918Z,21.05
2022-10-01T01:02:46.928Z,21.09
2022-10-01T01:02:56.847Z,21.09
2022-10-01T01:03:06.908Z,21.09
2022-10-01T01:03:16.851Z,21.08
2022-10-01T01:03:26.844Z,21.08
2022-10-01T01:03:36.857Z,21.09
2022-10-01T01:03:46.846Z,21.09
2022-10-01T01:03:56.859Z,21.09
2022-10-01T01:04:06.841Z,21.11
2022-10-01T01:04:16.964Z,21.11
2022-10-01T01:04:26.840Z,21.11
2022-10-01T01:04:36.844Z,21.06
2022-10-01T01:04:46.836Z,21.08
2022-10-01T01:04:56.868Z,21.08
2022-10-01T01:05:06.849Z,21.08
2022-10-01T01:05:16.852Z,21.08
2022-10-01T01:05:26.860Z,21.08
2022-10-01T01:05:36.858Z,21.06
2022-10-01T01:05:46.834Z,21.08
2022-10-01T01:05:56.838Z,21.08
2022-10-01T01:06:06.834Z,21.08
2022-10-01T01:06:26.824Z,21.08
2022-10-01T01:06:36.835Z,21.08
2022-10-01T01:06:46.822Z,21.08
2022-10-01T01:06:56.822Z,21.05
2022-10-01T01:07:06.829Z,21.09
2022-10-01T01:07:16.823Z,21.09
2022-10-01T01:07:26.818Z,21.09
2022-10-01T01:07:36.821Z,21.06
2022-10-01T01:07:46.813Z,21.09
2022-10-01T01:07:56.816Z,21.09
2022-10-01T01:08:06.814Z,21.11
2022-10-01T01:08:16.828Z,21.06
2022-10-01T01:08:26.809Z,21.09
2022-10-01T01:08:36.818Z,21.09
2022-10-01T01:08:46.880Z,21.06
2022-10-01T01:08:56.856Z,21.06
2022-10-01T01:09:06.805Z,21.08
2022-10-01T01:09:16.807Z,21.08
2022-10-01T01:09:26.802Z,21.06
2022-10-01T01:09:36.842Z,21.08
2022-10-01T01:09:46.800Z,21.08
2022-10-01T01:09:56.806Z,21.05
2022-10-01T01:10:06.797Z,21.08
2022-10-01T01:10:16.803Z,21.09
2022-10-01T01:10:26.795Z,21.09
2022-10-01T01:10:36.799Z,21.08
2022-10-01T01:10:46.810Z,21.08
2022-10-01T01:10:56.814Z,21.06
2022-10-01T01:11:06.869Z,21.06
2022-10-01T01:11:16.789Z,21.06
2022-10-01T01:11:26.793Z,21.06
2022-10-01T01:11:46.787Z,21.09
2022-10-01T01:11:56.791Z,21.06
2022-10-01T01:12:06.787Z,21.06
2022-10-01T01:12:16.785Z,21.05
2022-10-01T01:12:26.786Z,21.06
2022-10-01T01:12:36.783Z,21.08
2022-10-01T01:12:46.778Z,21.09
2022-10-01T01:12:56.783Z,21.06
2022-10-01T01:13:06.774Z,21.05
2022-10-01T01:13:16.778Z,21.05
2022-10-01T01:13:26.790Z,21.06
2022-10-01T01:13:36.788Z,21.08
2022-10-01T01:13:46.780Z,21.05
2022-10-01T01:13:56.772Z,21.08
2022-10-01T01:14:06.789Z,21.08
2022-10-01T01:14:16.780Z,21.06
2022-10-01T01:14:36.816Z,21.06
2022-10-01T01:14:46.775Z,21.09
2022-10-01T01:14:56.765Z,21.06
2022-10-01T01:15:06.779Z,21.06
2022-10-01T01:15:16.765Z,21.06
2022-10-01T01:15:26.760Z,21.06
2022-10-01T01:15:36.855Z,21.09
2022-10-01T01:15:46.815Z,21.05
2022-10-01T01:15:56.839Z,21.08
2022-10-01T01:16:06.856Z,21.09
2022-10-01T01:16:16.807Z,21.08
2022-10-01T01:16:26.751Z,21.08
2022-10-01T01:16:36.752Z,21.09
2022-10-01T01:16:46.759Z,21.06
2022-10-01T01:16:56.783Z,21.05
2022-10-01T01:17:06.745Z,21.09
2022-10-01T01:17:16.773Z,21.06
2022-10-01T01:17:26.745Z,21.06
2022-10-01T01:17:36.744Z,21.08
2022-10-01T01:17:46.744Z,21.03
2022-10-01T01:17:56.742Z,21.06
2022-10-01T01:18:06.741Z,21.08
2022-10-01T01:18:16.761Z,21.06
2022-10-01T01:18:26.738Z,21.06
2022-10-01T01:18:36.739Z,21.06
2022-10-01T01:18:46.749Z,21.08
2022-10-01T01:18:56.738Z,21.09
2022-10-01T01:19:06.733Z,21.09
2022-10-01T01:19:16.843Z,21.12
2022-10-01T01:19:26.729Z,21.08
2022-10-01T01:19:36.733Z,21.08
2022-10-01T01:19:46.725Z,21.08
2022-10-01T01:19:56.727Z,21.06
2022-10-01T01:20:06.739Z,21.05
2022-10-01T01:20:16.726Z,21.06
2022-10-01T01:20:26.723Z,21.06
2022-10-01T01:20:36.728Z,21.05
2022-10-01T01:20:46.720Z,21.06
2022-10-01T01:20:56.720Z,21.08
2022-10-01T01:21:06.735Z,21.06
2022-10-01T01:21:16.725Z,21.08
2022-10-01T01:21:26.715Z,21.05
2022-10-01T01:21:37.047Z,21.05
2022-10-01T01:21:46.733Z,21.05
2022-10-01T01:21:56.733Z,21.05
2022-10-01T01:22:06.712Z,21.08
2022-10-01T01:22:16.760Z,21.08
2022-10-01T01:22:26.708Z,21.01
2022-10-01T01:22:36.719Z,21.05
2022-10-01T01:22:46.707Z,21.06
2022-10-01T01:22:56.710Z,21.08
2022-10-01T01:23:06.714Z,21.08
2022-10-01T01:23:16.710Z,21.03
2022-10-01T01:23:26.719Z,21.06
2022-10-01T01:23:36.703Z,21.03
2022-10-01T01:23:46.710Z,21.08
2022-10-01T01:23:56.702Z,21.06
2022-10-01T01:24:06.695Z,21.08
2022-10-01T01:24:16.695Z,21.08
2022-10-01T01:24:26.751Z,21.05
2022-10-01T01:24:36.692Z,21.06
2022-10-01T01:24:46.716Z,21.06
2022-10-01T01:24:56.693Z,21.06
2022-10-01T01:25:06.685Z,21.05
2022-10-01T01:25:16.689Z,21.06
2022-10-01T01:25:26.686Z,21.09
2022-10-01T01:25:36.688Z,21.06
2022-10-01T01:25:46.689Z,21.03
2022-10-01T01:25:56.715Z,21.06
2022-10-01T01:26:06.680Z,21.06
2022-10-01T01:26:16.683Z,21.06
2022-10-01T01:26:26.680Z,21.05
2022-10-01T01:26:36.691Z,21.05
2022-10-01T01:26:46.680Z,21.05
2022-10-01T01:26:56.680Z,21.05
2022-10-01T01:27:06.677Z,21.06
2022-10-01T01:27:16.682Z,21.06
2022-10-01T01:27:26.751Z,21.05
2022-10-01T01:27:36.689Z,21.06
2022-10-01T01:27:46.725Z,21.06
2022-10-01T01:27:56.716Z,21.06
2022-10-01T01:28:06.739Z,21.06
2022-10-01T01:28:16.788Z,21.06
2022-10-01T01:28:26.723Z,21.05
2022-10-01T01:28:36.675Z,21.05
2022-10-01T01:28:46.665Z,21.05
2022-10-01T01:28:56.674Z,21.05
2022-10-01T01:29:06.673Z,21.06
2022-10-01T01:29:16.668Z,21.05
2022-10-01T01:29:26.670Z,21.05
2022-10-01T01:29:36.724Z,21.06
2022-10-01T01:29:46.656Z,21.05
2022-10-01T01:29:56.656Z,21.06
2022-10-01T01:30:06.666Z,21.08
2022-10-01T01:30:16.671Z,21.05
2022-10-01T01:30:26.650Z,21.05
2022-10-01T01:30:36.651Z,21.06
2022-10-01T01:30:46.696Z,21.05
2022-10-01T01:30:56.740Z,21.08
2022-10-01T01:31:06.723Z,21.05
2022-10-01T01:31:16.750Z,21.08
2022-10-01T01:31:26.714Z,21.03
2022-10-01T01:31:37.169Z,21.05
2022-10-01T01:31:46.657Z,21.05
2022-10-01T01:31:56.651Z,21.06
2022-10-01T01:32:08.563Z,21.05
2022-10-01T01:32:16.641Z,21.03
2022-10-01T01:32:26.653Z,21.06
2022-10-01T01:32:36.667Z,21.01
2022-10-01T01:32:46.641Z,21.06
2022-10-01T01:32:56.677Z,21.03
2022-10-01T01:33:06.656Z,21.03
2022-10-01T01:33:16.653Z,21.06
2022-10-01T01:33:26.627Z,21.05
2022-10-01T01:33:46.630Z,21.05
2022-10-01T01:33:56.632Z,21.06
2022-10-01T01:34:06.624Z,21.05
2022-10-01T01:34:16.630Z,21.06
2022-10-01T01:34:26.640Z,21.03
2022-10-01T01:34:36.622Z,21.03
2022-10-01T01:34:46.639Z,21.05
2022-10-01T01:34:56.620Z,21.05
2022-10-01T01:35:06.614Z,21.06
2022-10-01T01:35:16.617Z,21.03
2022-10-01T01:35:26.616Z,21.05
2022-10-01T01:35:36.661Z,21.05
2022-10-01T01:35:46.609Z,21.05
2022-10-01T01:35:56.612Z,21.06
2022-10-01T01:36:06.618Z,21.01
2022-10-01T01:36:16.615Z,21.01
2022-10-01T01:36:26.629Z,21.03
2022-10-01T01:36:36.611Z,21.03
2022-10-01T01:36:46.658Z,21.05
2022-10-01T01:36:56.608Z,21.06
2022-10-01T01:37:06.617Z,21.06
2022-10-01T01:37:16.603Z,21.08
2022-10-01T01:37:26.605Z,21.05
2022-10-01T01:37:36.606Z,21.03
2022-10-01T01:37:46.595Z,21.03
2022-10-01T01:37:56.618Z,21.06
2022-10-01T01:38:06.598Z,21.01
2022-10-01T01:38:16.593Z,21.05
2022-10-01T01:38:26.599Z,21.06
2022-10-01T01:38:36.595Z,21.05
2022-10-01T01:38:56.588Z,21.05
2022-10-01T01:39:06.587Z,21.03
2022-10-01T01:39:16.590Z,21.01
2022-10-01T01:39:26.594Z,21.01
2022-10-01T01:39:36.586Z,21.05
2022-10-01T01:39:46.602Z,21.03
2022-10-01T01:39:56.599Z,21.05
2022-10-01T01:40:06.580Z,21.01
2022-10-01T01:40:16.578Z,21.05
2022-10-01T01:40:26.579Z,21.03
2022-10-01T01:40:36.584Z,21.03
2022-10-01T01:40:46.583Z,21.05
2022-10-01T01:40:56.576Z,21.03
2022-10-01T01:41:06.572Z,21.05
2022-10-01T01:41:16.575Z,21.03
2022-10-01T01:41:26.570Z,21.05
2022-10-01T01:41:36.873Z,21.01
2022-10-01T01:41:46.569Z,21.03
2022-10-01T01:41:56.593Z,21.03
2022-10-01T01:42:06.569Z,21.01
2022-10-01T01:42:16.580Z,21.05
2022-10-01T01:42:26.607Z,21.05
2022-10-01T01:42:36.577Z,21.03
2022-10-01T01:42:46.560Z,21.05
2022-10-01T01:42:56.560Z,21.05
2022-10-01T01:43:06.559Z,21.03
2022-10-01T01:43:16.596Z,21.05
2022-10-01T01:43:26.554Z,21.03
2022-10-01T01:43:36.575Z,21.06
2022-10-01T01:43:46.554Z,21.06
2022-10-01T01:43:56.556Z,21.05
2022-10-01T01:44:06.579Z,21.05
2022-10-01T01:44:16.552Z,21.01
2022-10-01T01:44:26.549Z,21.03
2022-10-01T01:44:36.560Z,21.05
2022-10-01T01:44:46.548Z,21.01
2022-10-01T01:44:56.549Z,21.06
2022-10-01T01:45:06.542Z,21.05
2022-10-01T01:45:16.547Z,21.03
2022-10-01T01:45:26.747Z,21.05
2022-10-01T01:45:36.599Z,21.03
2022-10-01T01:45:46.583Z,21.05
2022-10-01T01:45:56.608Z,21.08
2022-10-01T01:46:06.632Z,21.05
2022-10-01T01:46:16.605Z,21.01
2022-10-01T01:46:26.537Z,21.06
2022-10-01T01:46:36.540Z,21.03
2022-10-01T01:46:46.541Z,21.03
2022-10-01T01:46:56.554Z,21.06
2022-10-01T01:47:06.532Z,21.06
2022-10-01T01:47:16.527Z,21.03
2022-10-01T01:47:26.575Z,21.03
2022-10-01T01:47:36.524Z,21.05
2022-10-01T01:47:46.530Z,21.08
2022-10-01T01:47:56.534Z,21.05
2022-10-01T01:48:06.525Z,21.05
2022-10-01T01:48:16.524Z,21.05
2022-10-01T01:48:26.522Z,21.08
2022-10-01T01:48:36.520Z,21.06
2022-10-01T01:48:46.521Z,21.05
2022-10-01T01:48:56.552Z,21.05
2022-10-01T01:49:06.525Z,21.03
2022-10-01T01:49:16.526Z,21.03
2022-10-01T01:49:26.536Z,21.03
2022-10-01T01:49:36.531Z,21.05
2022-10-01T01:49:46.540Z,21.03
2022-10-01T01:49:56.521Z,21.03
2022-10-01T01:50:06.525Z,21.05
2022-10-01T01:50:16.542Z,21.05
2022-10-01T01:50:26.507Z,21.03
2022-10-01T01:50:36.527Z,21.03
2022-10-01T01:50:46.515Z,21.03
2022-10-01T01:50:56.501Z,21.05
2022-10-01T01:51:06.532Z,21.05
2022-10-01T01:51:16.504Z,21.00
2022-10-01T01:51:26.510Z,21.05
2022-10-01T01:51:36.793Z,21.05
2022-10-01T01:51:46.499Z,21.05
2022-10-01T01:51:56.516Z,21.05
2022-10-01T01:52:06.497Z,21.01
2022-10-01T01:52:16.492Z,21.01
2022-10-01T01:52:26.496Z,21.03
2022-10-01T01:52:36.518Z,21.06
2022-10-01T01:52:46.492Z,21.05
2022-10-01T01:52:56.488Z,21.05
2022-10-01T01:53:06.542Z,21.05
2022-10-01T01:53:16.482Z,21.06
2022-10-01T01:53:26.502Z,21.03
2022-10-01T01:53:36.495Z,21.05
2022-10-01T01:53:46.500Z,21.01
2022-10-01T01:53:56.481Z,21.06
2022-10-01T01:54:06.502Z,21.01
2022-10-01T01:54:16.479Z,21.03
2022-10-01T01:54:26.601Z,21.03
2022-10-01T01:54:36.475Z,21.01
2022-10-01T01:54:46.476Z,21.05
2022-10-01T01:54:56.471Z,21.05
2022-10-01T01:55:06.491Z,21.03
2022-10-01T01:55:16.471Z,21.05
2022-10-01T01:55:26.522Z,21.05
2022-10-01T01:55:36.473Z,21.05
2022-10-01T01:55:46.468Z,21.03
2022-10-01T01:55:56.498Z,21.01
2022-10-01T01:56:06.472Z,21.05
2022-10-01T01:56:16.463Z,21.03
2022-10-01T01:56:25.508Z,21.05
2022-10-01T01:56:36.484Z,21.03
2022-10-01T01:56:46.464Z,21.01
2022-10-01T01:56:56.473Z,21.01
2022-10-01T01:57:06.458Z,21.05
2022-10-01T01:57:16.457Z,21.01
2022-10-01T01:57:26.457Z,21.01
2022-10-01T01:57:36.475Z,21.03
2022-10-01T01:57:46.462Z,21.03
2022-10-01T01:57:56.469Z,21.01
2022-10-01T01:58:06.454Z,21.01
2022-10-01T01:58:16.451Z,21.05
2022-10-01T01:58:26.477Z,21.03
2022-10-01T01:58:36.453Z,21.05
2022-10-01T01:58:46.447Z,21.00
2022-10-01T01:58:56.553Z,21.03
2022-10-01T01:59:06.476Z,21.03
2022-10-01T01:59:26.484Z,21.03
2022-10-01T01:59:36.446Z,21.03
2022-10-01T01:59:46.439Z,21.05
2022-10-01T01:59:56.438Z,21.03
2022-10-01T02:00:06.440Z,21.01
2022-10-01T02:00:16.432Z,21.06
2022-10-01T02:00:26.438Z,21.03
2022-10-01T02:00:36.431Z,21.03
2022-10-01T02:00:46.434Z,21.01
2022-10-01T02:00:56.460Z,21.05
2022-10-01T02:01:06.486Z,21.05
2022-10-01T02:01:16.481Z,21.01
2022-10-01T02:01:26.456Z,21.01
2022-10-01T02:01:36.792Z,21.03
2022-10-01T02:01:56.578Z,21.01
2022-10-01T02:02:06.554Z,21.03
2022-10-01T02:02:16.555Z,21.05
2022-10-01T02:02:26.474Z,21.01
2022-10-01T02:02:36.496Z,21.03
2022-10-01T02:02:46.501Z,21.03
2022-10-01T02:02:56.503Z,21.03
2022-10-01T02:03:06.425Z,21.05
2022-10-01T02:03:16.469Z,21.00
2022-10-01T02:03:26.426Z,21.05
2022-10-01T02:03:36.417Z,21.01
2022-10-01T02:03:46.411Z,21.01
2022-10-01T02:03:56.420Z,21.01
2022-10-01T02:04:06.409Z,21.03
2022-10-01T02:04:16.440Z,21.01
2022-10-01T02:04:26.405Z,21.05
2022-10-01T02:04:36.403Z,21.03
2022-10-01T02:04:46.420Z,21.01
2022-10-01T02:04:56.400Z,21.06
2022-10-01T02:05:06.402Z,21.01
2022-10-01T02:05:16.408Z,21.01
2022-10-01T02:05:26.427Z,21.03
2022-10-01T02:05:36.395Z,21.05
2022-10-01T02:05:46.395Z,21.03
2022-10-01T02:05:56.393Z,21.05
2022-10-01T02:06:06.402Z,21.05
2022-10-01T02:06:16.390Z,21.05
2022-10-01T02:06:26.395Z,21.01
2022-10-01T02:06:36.390Z,21.03
2022-10-01T02:06:46.394Z,21.00
2022-10-01T02:06:56.383Z,21.01
2022-10-01T02:07:06.386Z,21.03
2022-10-01T02:07:16.414Z,21.01
2022-10-01T02:07:26.385Z,21.03
2022-10-01T02:07:36.397Z,21.01
2022-10-01T02:07:46.397Z,21.03
2022-10-01T02:07:56.383Z,21.05
2022-10-01T02:08:06.388Z,21.03
2022-10-01T02:08:16.388Z,20.98
2022-10-01T02:08:26.381Z,21.01
2022-10-01T02:08:36.378Z,21.01
2022-10-01T02:08:46.373Z,21.01
2022-10-01T02:08:56.370Z,21.03
2022-10-01T02:09:06.401Z,21.01
2022-10-01T02:09:16.369Z,21.01
2022-10-01T02:09:26.382Z,21.03
2022-10-01T02:09:36.392Z,21.00
2022-10-01T02:09:46.430Z,21.01
2022-10-01T02:10:06.362Z,21.01
2022-10-01T02:10:16.379Z,21.01
2022-10-01T02:10:26.363Z,21.01
2022-10-01T02:10:36.359Z,21.03
2022-10-01T02:10:46.365Z,21.01
2022-10-01T02:10:56.360Z,21.01
2022-10-01T02:11:06.357Z,21.05
2022-10-01T02:11:16.359Z,21.03
2022-10-01T02:11:26.395Z,21.01
2022-10-01T02:11:36.554Z,21.01